Huvudsida
METAR-TAF:

METAR-TAF

Flygplatser :

Oljeplattform

Norne Fpso, Norge

latitud: 66-01-48N, longitud: 008-04-48E, höjd: 10 m

Aktuellt väderrapport

Denna rapport gjordes för 21 minuter sedan, klockan 04:50 UTC
Vind 22 kt från väst/nordväst
Temperatur 7°C
Fuktighet 81%
Tryck 1034 hPa
Sikt 10 km eller mer

METAR: ENNE 170450Z AUTO 30022KT 9999NDV OVC018/// 07/04 Q1034 W///S5

Tid: 06:11 (05:11 UTC)

Väderprognos

Denna rapport gjordes för 15 timmar och 11 minuter sedan, klockan 14:00 UTC
Prognos gäller från 16 kl. 15 UTC till 16 kl. 18 UTC
Vind 30 kt från väst/sydväst
Sikt 10 km eller mer
Spridda moln på en höjd av 1200 ft
Brutna moln på en höjd av 2000 ft
lätta regnskurar
Temporärt
från 16 kl. 15 UTC till 16 kl. 16 UTC
Vind 35 kt från väst i byarna ända upp till 45 kt
Brutna moln på en höjd av 1200 ft
regnskurar

TAF: ENNE 161400Z 1615/1618 25030KT 9999 -SHRA SCT012 BKN020 TEMPO 1615/1616 27035G45KT SHRA BKN012

Aktuella väderrapporter och prognoser från 4000 flygplatser (METAR- och TAF-rapporter).

De tillgängliga stationerna syns som gula och röda prickar på kartan.

För musen över prickarna för att se namnen på stationerna.

Klicka sedan för att få väderrapporter och prognoser.

För att ändra kartan: Klicka på de gröna knapparna med ett svart kors på för att zooma in; den gröna knappen med ett streck på för att zooma ut; eller på de gröna pilarna för angränsande kartor.


METAR-TAF: